createdAt,value
2023-02-06T00:00:18.311Z,8.87
2023-02-06T00:03:06.160Z,9.07
2023-02-06T00:05:58.143Z,9.80
2023-02-06T00:08:46.052Z,6.87
2023-02-06T00:11:33.656Z,11.93
2023-02-06T00:14:21.070Z,9.17
2023-02-06T00:17:08.517Z,7.93
2023-02-06T00:19:56.502Z,7.20
2023-02-06T00:22:45.008Z,8.70
2023-02-06T00:25:32.436Z,7.33
2023-02-06T00:28:20.282Z,8.83
2023-02-06T00:31:08.484Z,7.97
2023-02-06T00:33:56.494Z,7.63
2023-02-06T00:36:44.004Z,9.60
2023-02-06T00:39:31.731Z,9.53
2023-02-06T00:42:19.122Z,7.30
2023-02-06T00:45:06.941Z,10.83
2023-02-06T00:47:54.280Z,8.50
2023-02-06T00:50:42.540Z,8.10
2023-02-06T00:53:30.042Z,7.30
2023-02-06T00:56:18.015Z,9.10
2023-02-06T00:59:05.598Z,8.47
2023-02-06T01:01:53.349Z,7.77
2023-02-06T01:04:40.901Z,7.30
2023-02-06T01:07:28.825Z,7.20
2023-02-06T01:10:17.056Z,9.07
2023-02-06T01:13:04.475Z,8.77
2023-02-06T01:15:52.466Z,9.90
2023-02-06T01:18:40.195Z,7.03
2023-02-06T01:21:28.056Z,8.07
2023-02-06T01:24:15.796Z,7.30
2023-02-06T01:27:03.624Z,8.30
2023-02-06T01:29:51.520Z,7.33
2023-02-06T01:32:39.657Z,8.13
2023-02-06T01:35:29.236Z,6.70
2023-02-06T01:38:16.754Z,9.97
2023-02-06T01:41:05.255Z,10.23
2023-02-06T01:44:13.779Z,7.47
2023-02-06T01:47:01.892Z,9.80
2023-02-06T01:49:51.317Z,9.60
2023-02-06T01:52:39.525Z,8.77
2023-02-06T01:55:27.366Z,9.57
2023-02-06T01:58:17.337Z,7.73
2023-02-06T02:01:05.929Z,8.63
2023-02-06T02:03:55.596Z,8.33
2023-02-06T02:06:43.616Z,12.20
2023-02-06T02:09:31.874Z,9.00
2023-02-06T02:12:19.943Z,8.37
2023-02-06T02:15:07.375Z,9.20
2023-02-06T02:18:02.976Z,8.80
2023-02-06T02:21:05.607Z,11.63
2023-02-06T02:23:59.360Z,9.53
2023-02-06T02:27:05.620Z,10.03
2023-02-06T02:30:12.563Z,9.27
2023-02-06T02:33:18.426Z,8.37
2023-02-06T02:36:23.595Z,8.90
2023-02-06T02:39:13.633Z,10.07
2023-02-06T02:42:20.040Z,10.43
2023-02-06T02:45:11.341Z,8.83
2023-02-06T02:48:06.347Z,10.73
2023-02-06T02:50:55.065Z,10.80
2023-02-06T02:53:43.193Z,10.40
2023-02-06T02:56:31.200Z,7.37
2023-02-06T02:59:38.236Z,9.93
2023-02-06T03:02:27.663Z,12.37
2023-02-06T03:05:20.134Z,9.80
2023-02-06T03:08:19.195Z,8.87
2023-02-06T03:11:18.261Z,9.30
2023-02-06T03:14:34.817Z,11.27
2023-02-06T03:17:44.211Z,10.37
2023-02-06T03:20:43.815Z,10.93
2023-02-06T03:23:39.132Z,10.43
2023-02-06T03:26:29.836Z,12.40
2023-02-06T03:29:18.717Z,9.93
2023-02-06T03:32:14.877Z,14.50
2023-02-06T03:35:08.081Z,10.40
2023-02-06T03:37:56.635Z,11.83
2023-02-06T03:40:45.152Z,10.57
2023-02-06T03:43:33.224Z,12.50
2023-02-06T03:46:20.970Z,10.80
2023-02-06T03:49:09.809Z,10.90
2023-02-06T03:52:02.677Z,10.40
2023-02-06T03:54:56.063Z,9.63
2023-02-06T03:57:45.338Z,11.60
2023-02-06T04:00:33.529Z,9.83
2023-02-06T04:03:21.503Z,11.57
2023-02-06T04:06:09.041Z,10.23
2023-02-06T04:08:56.502Z,10.37
2023-02-06T04:11:45.827Z,11.63
2023-02-06T04:14:33.243Z,11.87
2023-02-06T04:17:40.724Z,9.87
2023-02-06T04:20:28.426Z,9.00
2023-02-06T04:23:16.320Z,16.80
2023-02-06T04:26:03.652Z,9.93
2023-02-06T04:28:51.463Z,9.50
2023-02-06T04:31:38.781Z,9.30
2023-02-06T04:34:26.249Z,9.10
2023-02-06T04:37:13.866Z,8.50
2023-02-06T04:40:01.661Z,9.77
2023-02-06T04:42:49.404Z,9.93
2023-02-06T04:45:37.652Z,13.13
2023-02-06T04:48:25.321Z,10.40
2023-02-06T04:51:13.271Z,11.17
2023-02-06T04:54:01.043Z,10.87
2023-02-06T04:56:49.061Z,9.20
2023-02-06T04:59:36.937Z,9.83
2023-02-06T05:02:24.242Z,11.87
2023-02-06T05:05:11.739Z,9.97
2023-02-06T05:07:59.520Z,11.13
2023-02-06T05:10:46.852Z,10.00
2023-02-06T05:13:35.035Z,14.00
2023-02-06T05:16:22.521Z,9.63
2023-02-06T05:19:09.963Z,8.80
2023-02-06T05:21:57.172Z,10.47
2023-02-06T05:24:44.970Z,11.17
2023-02-06T05:27:32.283Z,10.27
2023-02-06T05:30:20.215Z,14.73
2023-02-06T05:33:07.460Z,11.53
2023-02-06T05:35:55.220Z,12.13
2023-02-06T05:38:43.000Z,12.10
2023-02-06T05:41:30.762Z,13.37
2023-02-06T05:44:18.155Z,15.07
2023-02-06T05:47:05.938Z,13.93
2023-02-06T05:49:53.808Z,20.20
2023-02-06T05:52:41.325Z,11.90
2023-02-06T05:55:29.249Z,15.73
2023-02-06T05:58:16.943Z,14.37
2023-02-06T06:01:04.851Z,15.73
2023-02-06T06:03:52.477Z,16.67
2023-02-06T06:06:40.460Z,13.87
2023-02-06T06:09:28.279Z,20.43
2023-02-06T06:12:15.696Z,11.73
2023-02-06T06:15:03.045Z,14.67
2023-02-06T06:17:50.877Z,13.67
2023-02-06T06:20:38.378Z,14.10
2023-02-06T06:23:26.144Z,15.80
2023-02-06T06:26:13.505Z,15.37
2023-02-06T06:29:01.437Z,21.03
2023-02-06T06:31:49.480Z,15.60
2023-02-06T06:34:37.282Z,14.63
2023-02-06T06:37:25.227Z,17.87
2023-02-06T06:40:12.928Z,18.13
2023-02-06T06:43:00.750Z,14.17
2023-02-06T06:45:48.135Z,13.20
2023-02-06T06:48:37.538Z,13.30
2023-02-06T06:51:26.818Z,15.63
2023-02-06T06:54:15.911Z,14.03
2023-02-06T06:57:03.210Z,15.37
2023-02-06T06:59:51.175Z,13.37
2023-02-06T07:02:38.672Z,11.30
2023-02-06T07:05:26.204Z,15.07
2023-02-06T07:08:14.430Z,15.10
2023-02-06T07:11:09.689Z,22.47
2023-02-06T07:14:03.966Z,31.23
2023-02-06T07:17:13.926Z,34.13
2023-02-06T07:20:01.282Z,28.10
2023-02-06T07:22:50.279Z,19.67
2023-02-06T07:25:37.994Z,20.57
2023-02-06T07:28:25.962Z,18.07
2023-02-06T07:31:13.372Z,15.53
2023-02-06T07:34:02.259Z,16.47
2023-02-06T07:36:50.252Z,23.03
2023-02-06T07:39:38.081Z,17.10
2023-02-06T07:42:25.623Z,12.53
2023-02-06T07:45:13.058Z,15.73
2023-02-06T07:48:01.066Z,17.67
2023-02-06T07:50:48.478Z,17.17
2023-02-06T07:53:36.658Z,16.93
2023-02-06T07:56:25.611Z,21.77
2023-02-06T07:59:13.341Z,23.33
2023-02-06T08:02:01.055Z,16.30
2023-02-06T08:04:48.993Z,29.17
2023-02-06T08:07:36.405Z,13.33
2023-02-06T08:10:24.344Z,22.57
2023-02-06T08:13:12.288Z,18.30
2023-02-06T08:15:59.726Z,13.90
2023-02-06T08:18:48.369Z,12.40
2023-02-06T08:21:35.842Z,14.47
2023-02-06T08:24:23.306Z,15.13
2023-02-06T08:27:10.729Z,12.07
2023-02-06T08:29:59.873Z,13.33
2023-02-06T08:32:47.304Z,13.13
2023-02-06T08:35:35.518Z,13.37
2023-02-06T08:38:22.925Z,10.43
2023-02-06T08:41:22.524Z,10.67
2023-02-06T08:44:12.319Z,8.90
2023-02-06T08:47:09.592Z,9.40
2023-02-06T08:49:58.150Z,9.17
2023-02-06T08:52:46.082Z,9.00
2023-02-06T08:55:33.478Z,7.00
2023-02-06T08:58:21.229Z,9.47
2023-02-06T09:01:08.554Z,11.43
2023-02-06T09:03:56.937Z,8.43
2023-02-06T09:06:45.136Z,7.27
2023-02-06T09:09:33.298Z,8.43
2023-02-06T09:12:22.126Z,10.10
2023-02-06T09:15:10.324Z,9.47
2023-02-06T09:17:58.040Z,8.10
2023-02-06T09:20:48.525Z,7.80
2023-02-06T09:23:36.508Z,5.90
2023-02-06T09:26:25.910Z,6.97
2023-02-06T09:29:13.471Z,7.80
2023-02-06T09:32:01.428Z,6.07
2023-02-06T09:34:49.372Z,7.63
2023-02-06T09:37:36.836Z,6.10
2023-02-06T09:40:27.516Z,5.70
2023-02-06T09:43:15.004Z,6.57
2023-02-06T09:46:04.584Z,5.83
2023-02-06T09:48:52.635Z,6.60
2023-02-06T09:51:53.863Z,6.90
2023-02-06T09:54:54.899Z,6.63
2023-02-06T09:57:46.652Z,6.57
2023-02-06T10:01:00.312Z,6.80
2023-02-06T10:15:07.995Z,8.27
2023-02-06T10:18:14.632Z,6.87
2023-02-06T10:21:20.754Z,5.23
2023-02-06T10:24:26.751Z,5.73
2023-02-06T10:27:15.550Z,7.77
2023-02-06T10:30:03.204Z,4.33
2023-02-06T10:33:23.912Z,4.90
2023-02-06T10:36:15.157Z,4.83
2023-02-06T10:39:21.469Z,4.70
2023-02-06T10:42:16.687Z,5.20
2023-02-06T10:45:20.436Z,5.23
2023-02-06T10:48:22.610Z,6.77
2023-02-06T10:51:22.748Z,5.23
2023-02-06T10:54:17.544Z,5.07
2023-02-06T10:57:06.515Z,5.93
2023-02-06T10:59:56.386Z,5.57
2023-02-06T11:03:06.640Z,7.07
2023-02-06T11:05:54.722Z,6.63
2023-02-06T11:08:46.331Z,8.53
2023-02-06T11:11:38.246Z,6.00
2023-02-06T11:14:28.656Z,8.33
2023-02-06T11:17:17.851Z,6.67
2023-02-06T11:20:23.464Z,9.70
2023-02-06T11:23:16.366Z,7.10
2023-02-06T11:26:06.079Z,5.03
2023-02-06T11:28:53.970Z,5.67
2023-02-06T11:31:56.973Z,6.30
2023-02-06T11:35:01.364Z,7.43
2023-02-06T11:37:52.870Z,7.40
2023-02-06T11:40:40.348Z,10.17
2023-02-06T11:43:32.632Z,5.80
2023-02-06T11:46:24.080Z,7.03
2023-02-06T11:49:30.388Z,6.20
2023-02-06T11:52:32.211Z,5.70
2023-02-06T11:55:27.713Z,7.73
2023-02-06T11:58:15.178Z,7.17
2023-02-06T12:01:04.983Z,5.70
2023-02-06T12:03:53.827Z,7.07
2023-02-06T12:06:42.252Z,8.13
2023-02-06T12:09:30.155Z,10.13
2023-02-06T12:12:26.331Z,14.37
2023-02-06T12:15:39.959Z,7.13
2023-02-06T12:18:29.831Z,8.43
2023-02-06T12:21:24.862Z,4.53
2023-02-06T12:24:25.223Z,6.73
2023-02-06T12:27:15.577Z,7.23
2023-02-06T12:30:23.786Z,6.70
2023-02-06T12:33:20.151Z,6.23
2023-02-06T12:36:12.338Z,6.97
2023-02-06T12:39:05.642Z,11.07
2023-02-06T12:42:01.956Z,4.77
2023-02-06T12:44:49.368Z,8.90
2023-02-06T12:47:40.768Z,10.27
2023-02-06T12:50:31.232Z,6.63
2023-02-06T12:53:30.561Z,7.10
2023-02-06T12:56:28.000Z,7.17
2023-02-06T12:59:15.396Z,6.83
2023-02-06T13:02:17.780Z,7.77
2023-02-06T13:05:12.929Z,6.43
2023-02-06T13:08:05.981Z,9.93
2023-02-06T13:11:01.614Z,8.87
2023-02-06T13:13:53.165Z,12.20
2023-02-06T13:16:45.347Z,8.07
2023-02-06T13:19:51.873Z,14.40
2023-02-06T13:22:41.748Z,9.07
2023-02-06T13:25:32.205Z,7.53
2023-02-06T13:28:23.331Z,10.13
2023-02-06T13:31:24.805Z,13.33
2023-02-06T13:34:15.681Z,7.70
2023-02-06T13:37:21.989Z,11.50
2023-02-06T13:40:25.013Z,7.27
2023-02-06T13:43:19.421Z,6.53
2023-02-06T13:46:10.336Z,8.27
2023-02-06T13:49:25.417Z,8.10
2023-02-06T13:52:23.496Z,5.73
2023-02-06T13:55:22.147Z,6.67
2023-02-06T13:58:26.213Z,8.47
2023-02-06T14:01:15.350Z,10.67
2023-02-06T14:04:07.486Z,6.13
2023-02-06T14:07:11.994Z,10.47
2023-02-06T14:10:23.643Z,9.03
2023-02-06T14:13:17.617Z,10.20
2023-02-06T14:16:05.020Z,6.90
2023-02-06T14:19:11.689Z,10.93
2023-02-06T14:22:16.809Z,5.87
2023-02-06T14:25:04.550Z,6.93
2023-02-06T14:28:11.248Z,8.50
2023-02-06T14:30:58.702Z,10.00
2023-02-06T14:34:01.213Z,9.80
2023-02-06T14:36:57.804Z,8.00
2023-02-06T14:39:47.960Z,11.70
2023-02-06T14:42:40.288Z,10.27
2023-02-06T14:45:42.102Z,10.23
2023-02-06T14:48:33.200Z,11.40
2023-02-06T14:51:21.109Z,7.80
2023-02-06T14:54:27.879Z,7.77
2023-02-06T14:57:25.185Z,6.60
2023-02-06T15:00:19.738Z,12.20
2023-02-06T15:03:22.762Z,6.57
2023-02-06T15:06:12.271Z,6.37
2023-02-06T15:09:00.399Z,10.83
2023-02-06T15:11:51.594Z,5.10
2023-02-06T15:14:39.151Z,5.80
2023-02-06T15:17:27.047Z,7.13
2023-02-06T15:20:30.010Z,6.73
2023-02-06T15:23:32.739Z,7.97
2023-02-06T15:26:26.904Z,7.27
2023-02-06T15:29:18.580Z,7.20
2023-02-06T15:32:08.286Z,8.60
2023-02-06T15:34:56.334Z,9.40
2023-02-06T15:37:43.801Z,6.40
2023-02-06T15:40:32.363Z,10.60
2023-02-06T15:43:20.904Z,7.63
2023-02-06T15:46:08.577Z,5.30
2023-02-06T15:48:57.905Z,5.00
2023-02-06T15:51:55.785Z,8.50
2023-02-06T15:54:45.549Z,8.50
2023-02-06T15:57:35.474Z,11.27
2023-02-06T16:00:25.264Z,6.63
2023-02-06T16:03:18.201Z,7.83
2023-02-06T16:06:14.036Z,8.77
2023-02-06T16:09:03.030Z,9.07
2023-02-06T16:11:51.774Z,7.93
2023-02-06T16:14:40.574Z,9.13
2023-02-06T16:17:32.800Z,7.30
2023-02-06T16:20:36.954Z,9.10
2023-02-06T16:23:29.650Z,12.43
2023-02-06T16:26:27.807Z,7.77
2023-02-06T16:29:24.010Z,9.67
2023-02-06T16:32:16.977Z,7.87
2023-02-06T16:35:04.277Z,9.70
2023-02-06T16:37:53.858Z,9.07
2023-02-06T16:40:41.875Z,6.77
2023-02-06T16:43:31.038Z,8.10
2023-02-06T16:46:18.554Z,13.73
2023-02-06T16:49:07.285Z,11.37
2023-02-06T16:51:54.784Z,10.70
2023-02-06T16:54:42.723Z,7.43
2023-02-06T16:57:32.000Z,11.57
2023-02-06T17:00:21.746Z,9.43
2023-02-06T17:03:10.340Z,7.50
2023-02-06T17:05:58.269Z,7.93
2023-02-06T17:08:45.770Z,8.80
2023-02-06T17:11:33.933Z,12.70
2023-02-06T17:14:22.028Z,8.83
2023-02-06T17:17:18.036Z,7.57
2023-02-06T17:20:06.005Z,10.27
2023-02-06T17:22:53.472Z,8.63
2023-02-06T17:25:41.853Z,9.90
2023-02-06T17:28:29.758Z,9.67
2023-02-06T17:31:17.446Z,11.93
2023-02-06T17:34:04.991Z,11.80
2023-02-06T17:36:53.114Z,13.33
2023-02-06T17:39:41.041Z,9.67
2023-02-06T17:42:28.516Z,10.73
2023-02-06T17:45:16.610Z,10.13
2023-02-06T17:48:04.827Z,10.43
2023-02-06T17:50:52.882Z,6.70
2023-02-06T17:53:40.308Z,8.53
2023-02-06T17:56:27.999Z,9.87
2023-02-06T17:59:15.892Z,7.57
2023-02-06T18:02:03.828Z,10.17
2023-02-06T18:04:52.894Z,9.03
2023-02-06T18:07:41.158Z,10.60
2023-02-06T18:10:28.717Z,9.20
2023-02-06T18:13:16.390Z,9.50
2023-02-06T18:16:03.956Z,8.27
2023-02-06T18:18:51.885Z,8.90
2023-02-06T18:21:39.819Z,9.83
2023-02-06T18:24:27.212Z,10.23
2023-02-06T18:27:15.394Z,10.00
2023-02-06T18:30:04.363Z,7.77
2023-02-06T18:32:51.783Z,7.13
2023-02-06T18:35:40.211Z,8.93
2023-02-06T18:38:27.611Z,10.33
2023-02-06T18:41:33.884Z,8.43
2023-02-06T18:44:21.083Z,8.60
2023-02-06T18:47:09.630Z,8.73
2023-02-06T18:49:57.413Z,9.03
2023-02-06T18:52:45.305Z,8.60
2023-02-06T18:55:35.400Z,8.37
2023-02-06T18:58:22.819Z,10.30
2023-02-06T19:01:23.724Z,9.70
2023-02-06T19:04:11.751Z,15.53
2023-02-06T19:06:59.174Z,12.53
2023-02-06T19:09:46.634Z,11.43
2023-02-06T19:12:34.628Z,11.63
2023-02-06T19:15:22.591Z,10.90
2023-02-06T19:18:11.183Z,12.67
2023-02-06T19:20:58.590Z,10.00
2023-02-06T19:23:47.396Z,9.60
2023-02-06T19:26:34.863Z,10.67
2023-02-06T19:29:34.872Z,11.13
2023-02-06T19:32:23.203Z,9.57
2023-02-06T19:35:11.896Z,11.13
2023-02-06T19:38:01.950Z,11.57
2023-02-06T19:40:49.386Z,11.03
2023-02-06T19:43:37.693Z,9.37
2023-02-06T19:46:26.639Z,9.57
2023-02-06T19:49:14.533Z,12.67
2023-02-06T19:52:01.863Z,15.57
2023-02-06T19:54:49.300Z,9.60
2023-02-06T19:57:39.648Z,12.47
2023-02-06T20:00:26.989Z,8.07
2023-02-06T20:03:14.884Z,12.47
2023-02-06T20:06:03.097Z,10.30
2023-02-06T20:08:51.063Z,9.40
2023-02-06T20:11:38.679Z,16.10
2023-02-06T20:14:27.092Z,13.87
2023-02-06T20:17:14.353Z,11.10
2023-02-06T20:20:02.287Z,13.20
2023-02-06T20:22:49.538Z,11.40
2023-02-06T20:25:38.025Z,11.60
2023-02-06T20:28:26.495Z,11.53
2023-02-06T20:31:14.194Z,9.47
2023-02-06T20:34:01.703Z,10.50
2023-02-06T20:36:50.074Z,10.97
2023-02-06T20:39:38.355Z,9.73
2023-02-06T20:42:27.304Z,12.83
2023-02-06T20:45:15.197Z,8.63
2023-02-06T20:48:03.131Z,9.63
2023-02-06T20:50:56.901Z,14.03
2023-02-06T20:53:44.412Z,13.03
2023-02-06T20:56:32.039Z,12.20
2023-02-06T20:59:20.106Z,15.00
2023-02-06T21:02:08.099Z,14.47
2023-02-06T21:04:55.515Z,14.70
2023-02-06T21:07:42.983Z,14.27
2023-02-06T21:10:31.393Z,17.57
2023-02-06T21:13:19.883Z,13.87
2023-02-06T21:16:07.670Z,13.30
2023-02-06T21:18:56.126Z,14.47
2023-02-06T21:21:45.973Z,16.03
2023-02-06T21:24:34.181Z,14.73
2023-02-06T21:27:21.698Z,12.57
2023-02-06T21:30:09.860Z,11.93
2023-02-06T21:32:57.385Z,13.00
2023-02-06T21:35:52.009Z,10.97
2023-02-06T21:38:39.909Z,12.13
2023-02-06T21:41:28.381Z,12.53
2023-02-06T21:44:16.309Z,12.57
2023-02-06T21:47:04.830Z,13.37
2023-02-06T21:49:52.750Z,16.73
2023-02-06T21:52:40.214Z,11.77
2023-02-06T21:55:28.468Z,14.53
2023-02-06T21:58:16.586Z,13.27
2023-02-06T22:01:09.174Z,15.37
2023-02-06T22:03:57.277Z,16.83
2023-02-06T22:06:44.752Z,13.20
2023-02-06T22:09:32.694Z,14.13
2023-02-06T22:12:20.135Z,14.57
2023-02-06T22:15:08.785Z,13.10
2023-02-06T22:17:56.248Z,11.97
2023-02-06T22:20:44.052Z,13.00
2023-02-06T22:23:31.422Z,13.37
2023-02-06T22:26:20.377Z,13.37
2023-02-06T22:29:09.208Z,14.37
2023-02-06T22:31:57.060Z,13.47
2023-02-06T22:34:44.622Z,23.23
2023-02-06T22:37:33.329Z,13.13
2023-02-06T22:40:20.672Z,14.67
2023-02-06T22:43:08.459Z,14.27
2023-02-06T22:45:56.049Z,12.90
2023-02-06T22:48:43.881Z,18.67
2023-02-06T22:51:31.681Z,15.17
2023-02-06T22:54:19.024Z,17.83
2023-02-06T22:57:06.978Z,14.60
2023-02-06T22:59:54.732Z,16.60
2023-02-06T23:02:42.647Z,15.47
2023-02-06T23:05:30.420Z,15.97
2023-02-06T23:08:19.245Z,17.07
2023-02-06T23:11:07.015Z,14.03
2023-02-06T23:13:58.648Z,13.00
2023-02-06T23:16:46.610Z,14.60
2023-02-06T23:19:34.384Z,14.07
2023-02-06T23:22:21.701Z,14.63
2023-02-06T23:25:10.603Z,15.07
2023-02-06T23:27:57.936Z,15.57
2023-02-06T23:30:45.872Z,16.57
2023-02-06T23:33:33.616Z,14.27
2023-02-06T23:36:22.475Z,16.10
2023-02-06T23:39:11.704Z,21.27
2023-02-06T23:41:59.585Z,18.33
2023-02-06T23:44:47.344Z,19.17
2023-02-06T23:47:35.091Z,16.00
2023-02-06T23:50:23.402Z,15.67
2023-02-06T23:53:10.803Z,18.43
2023-02-06T23:55:58.668Z,16.00
2023-02-06T23:58:46.138Z,14.20
